CDT,Max TemperatureF,Mean TemperatureF,Min TemperatureF,Max Dew PointF,MeanDew PointF,Min DewpointF,Max Humidity, Mean Humidity, Min Humidity, Max Sea Level PressureIn, Mean Sea Level PressureIn, Min Sea Level PressureIn, Max VisibilityMiles, Mean VisibilityMiles, Min VisibilityMiles, Max Wind SpeedMPH, Mean Wind SpeedMPH, Max Gust SpeedMPH,PrecipitationIn, CloudCover, Events, WindDirDegrees
2013-5-1,86,74,60,59,57,50,87,76,35,30.05,29.84,29.80,10,10,7,18,7,24,0.00,0,,126
2013-5-2,54,50,41,48,40,31,76,69,63,30.36,30.16,30.06,10,10,10,25,19,31,0.00,6,,350
2013-5-3,66,36,32,32,30,28,89,81,66,30.35,30.29,30.03,10,10,10,8,6,,0.00,0,,317
2013-5-4,67,47,30,36,27,7,91,73,10,30.06,29.99,29.94,10,9,3,29,2,38,0.00,1,,334
2013-5-5,67,52,42,43,37,35,87,65,45,30.16,30.09,30.06,10,10,10,13,9,22,0.00,6,,347
2013-5-6,81,58,40,49,40,37,90,84,28,30.10,30.08,30.00,10,8,1,4,0,,0.00,0,,180
2013-5-7,86,67,48,50,48,39,90,74,19,30.05,30.04,29.97,10,10,2,8,1,,0.00,0,,126
2013-5-8,70,64,57,60,51,49,75,69,62,29.98,29.94,29.87,10,10,10,8,5,,0.00,0,,118
2013-5-9,79,66,61,61,57,55,89,70,61,29.96,29.91,29.86,10,9,1,9,6,,0.00,5,,133
2013-5-10,81,66,55,61,56,52,91,85,50,30.08,29.96,29.92,10,5,0,9,2,,0.00,5,Fog-Rain,354
2013-5-11,84,62,50,53,50,47,94,79,41,30.22,30.11,30.07,10,8,1,7,4,,0.00,0,,355
2013-5-12,82,56,44,46,40,30,79,62,23,30.26,30.23,30.15,10,10,10,8,5,,0.00,0,,353
2013-5-13,94,62,49,42,39,36,77,55,28,30.16,30.14,30.09,10,10,10,12,2,21,0.00,0,,145
2013-5-14,92,72,52,50,44,36,83,53,14,30.08,30.07,29.99,10,10,10,16,5,22,0.00,0,,205
2013-5-15,82,73,62,66,58,51,89,66,44,30.00,29.96,29.80,10,10,7,14,7,20,0.03,3,Rain-Thunderstorm,153
2013-5-16,68,64,61,63,60,59,91,90,83,29.83,29.79,29.76,10,9,5,13,6,,0.34,6,Rain-Thunderstorm,125
2013-5-17,88,72,65,70,63,62,90,87,70,29.87,29.84,29.82,7,3,1,9,6,,0.00,8,,107
2013-5-18,93,76,71,68,68,67,88,84,62,29.83,29.81,29.77,10,4,2,13,6,,0.00,6,,121
2013-5-19,90,76,73,67,64,61,67,65,58,29.81,29.76,29.69,10,10,7,14,7,17,0.00,1,,155
2013-5-20,91,74,64,66,63,59,84,67,55,29.89,29.72,29.65,10,9,2,15,11,48,0.02,3,Rain-Thunderstorm,176
2013-5-21,69,62,55,64,59,53,91,82,73,29.87,29.78,29.69,10,8,0,31,7,45,0.01,6,Fog-Rain-Thunderstorm,62
2013-5-22,87,68,48,63,52,46,94,78,27,29.94,29.87,29.84,10,4,0,8,1,,0.01,5,Fog,185
2013-5-23,89,74,60,66,60,56,88,77,35,30.06,29.96,29.91,10,10,10,13,4,18,0.00,1,,104
2013-5-24,84,74,64,68,62,59,85,79,58,30.16,30.10,30.05,10,10,10,14,4,20,0.00,2,,89
2013-5-25,84,69,65,66,63,62,89,87,78,30.19,30.14,30.07,10,10,5,13,5,22,0.03,2,Rain,123
2013-5-26,87,71,67,68,65,64,94,88,78,30.07,30.04,29.96,10,7,5,9,4,,0.00,5,,127
2013-5-27,86,76,70,68,67,64,84,78,54,29.96,29.90,29.80,10,10,10,15,8,24,0.00,1,,155
2013-5-28,84,78,71,66,64,63,73,65,48,29.86,29.80,29.74,10,10,10,20,12,29,0.00,1,,163
2013-5-29,82,72,64,68,65,61,89,71,61,29.82,29.78,29.70,10,9,2,24,11,38,1.52,6,Rain-Thunderstorm,146
2013-5-30,90,78,66,68,66,63,89,76,46,29.77,29.72,29.66,10,10,10,20,10,28,0.04,6,Thunderstorm,155
2013-5-31,91,84,76,70,68,68,75,66,49,29.80,29.73,29.63,10,10,10,17,10,24,0.00,3,,170